createdAt,value
2018-09-22T00:03:20.672Z,13.40
2018-09-22T00:08:23.912Z,13.30
2018-09-22T00:13:27.172Z,13.40
2018-09-22T00:18:30.427Z,13.30
2018-09-22T00:23:33.684Z,13.20
2018-09-22T00:28:36.958Z,13.30
2018-09-22T00:33:40.211Z,13.20
2018-09-22T00:38:43.474Z,13.20
2018-09-22T00:43:46.750Z,13.20
2018-09-22T00:48:50.025Z,13.20
2018-09-22T00:53:53.310Z,13.10
2018-09-22T00:58:56.586Z,13.10
2018-09-22T01:03:59.890Z,13.10
2018-09-22T01:09:03.419Z,13.10
2018-09-22T01:14:07.426Z,13.10
2018-09-22T01:19:10.674Z,13.00
2018-09-22T01:24:13.931Z,13.00
2018-09-22T01:29:17.199Z,13.00
2018-09-22T01:34:20.496Z,13.00
2018-09-22T01:39:23.771Z,13.00
2018-09-22T01:44:27.023Z,12.80
2018-09-22T01:49:30.287Z,12.80
2018-09-22T01:54:33.555Z,12.90
2018-09-22T01:59:36.810Z,12.80
2018-09-22T02:04:40.150Z,12.80
2018-09-22T02:09:43.434Z,12.80
2018-09-22T02:14:46.724Z,12.70
2018-09-22T02:19:49.984Z,12.70
2018-09-22T02:24:53.266Z,12.60
2018-09-22T02:29:56.655Z,12.50
2018-09-22T02:34:59.923Z,12.40
2018-09-22T02:45:06.694Z,12.20
2018-09-22T02:50:09.950Z,12.10
2018-09-22T02:55:13.210Z,12.00
2018-09-22T03:00:16.471Z,12.00
2018-09-22T03:05:19.739Z,11.90
2018-09-22T03:10:22.990Z,11.80
2018-09-22T03:15:26.302Z,11.80
2018-09-22T03:20:29.498Z,11.80
2018-09-22T03:25:32.820Z,11.80
2018-09-22T03:30:36.066Z,11.80
2018-09-22T03:35:39.318Z,11.70
2018-09-22T03:40:42.611Z,11.60
2018-09-22T03:45:45.868Z,11.60
2018-09-22T03:50:49.128Z,11.50
2018-09-22T03:55:52.415Z,11.50
2018-09-22T04:00:55.712Z,11.50
2018-09-22T04:05:59.015Z,11.50
2018-09-22T04:11:09.399Z,11.50
2018-09-22T04:16:12.650Z,11.50
2018-09-22T04:21:15.911Z,11.40
2018-09-22T04:26:19.168Z,11.40
2018-09-22T04:31:22.426Z,11.30
2018-09-22T04:36:25.693Z,11.20
2018-09-22T04:41:28.959Z,11.30
2018-09-22T04:46:32.221Z,11.30
2018-09-22T04:51:35.483Z,11.30
2018-09-22T04:56:38.724Z,11.30
2018-09-22T05:01:41.978Z,11.40
2018-09-22T05:06:45.249Z,11.40
2018-09-22T05:11:48.519Z,11.40
2018-09-22T05:16:51.826Z,11.30
2018-09-22T05:21:55.030Z,11.20
2018-09-22T05:26:58.284Z,11.20
2018-09-22T05:37:04.691Z,11.40
2018-09-22T05:42:08.486Z,11.30
2018-09-22T05:47:11.776Z,11.50
2018-09-22T05:52:15.055Z,11.50
2018-09-22T05:57:18.358Z,11.50
2018-09-22T06:02:21.636Z,11.60
2018-09-22T06:07:24.903Z,11.70
2018-09-22T06:12:28.195Z,11.70
2018-09-22T06:17:31.448Z,11.70
2018-09-22T06:22:34.707Z,11.80
2018-09-22T06:27:37.991Z,11.80
2018-09-22T06:32:41.255Z,11.90
2018-09-22T06:37:44.540Z,12.00
2018-09-22T06:47:50.921Z,12.30
2018-09-22T06:52:54.267Z,12.30
2018-09-22T06:57:57.851Z,12.50
2018-09-22T07:03:01.433Z,12.60
2018-09-22T07:08:05.107Z,12.70
2018-09-22T07:13:08.385Z,12.70
2018-09-22T07:18:11.650Z,13.10
2018-09-22T07:23:16.458Z,13.20
2018-09-22T07:28:19.720Z,13.20
2018-09-22T07:33:23.051Z,13.60
2018-09-22T07:38:26.790Z,13.50
2018-09-22T07:43:30.111Z,13.50
2018-09-22T07:48:33.406Z,13.50
2018-09-22T07:53:37.075Z,13.70
2018-09-22T07:58:41.633Z,13.70
2018-09-22T08:03:45.093Z,13.70
2018-09-22T08:08:48.553Z,13.70
2018-09-22T08:13:52.066Z,13.70
2018-09-22T08:23:58.490Z,13.60
2018-09-22T08:29:01.878Z,13.60
2018-09-22T08:39:10.155Z,13.70
2018-09-22T08:44:13.947Z,14.00
2018-09-22T08:49:18.900Z,14.00
2018-09-22T08:54:22.321Z,14.00
2018-09-22T08:59:26.318Z,13.90
2018-09-22T09:04:29.765Z,14.10
2018-09-22T09:09:33.641Z,14.10
2018-09-22T09:14:37.212Z,14.10
2018-09-22T09:19:40.600Z,14.10
2018-09-22T09:24:43.986Z,14.40
2018-09-22T09:29:47.335Z,14.60
2018-09-22T09:34:50.715Z,14.70
2018-09-22T09:44:57.842Z,14.50
2018-09-22T09:50:01.408Z,14.50
2018-09-22T09:55:08.484Z,14.50
2018-09-22T10:00:11.898Z,14.70
2018-09-22T10:05:15.335Z,14.70
2018-09-22T10:10:18.765Z,15.00
2018-09-22T10:15:22.776Z,15.10
2018-09-22T10:20:26.134Z,15.00
2018-09-22T10:25:29.679Z,15.10
2018-09-22T10:30:33.201Z,15.10
2018-09-22T10:35:36.686Z,15.30
2018-09-22T10:40:40.081Z,15.40
2018-09-22T10:45:43.457Z,15.20
2018-09-22T10:50:46.919Z,15.30
2018-09-22T10:55:50.254Z,15.30
2018-09-22T11:00:53.560Z,15.80
2018-09-22T11:05:56.823Z,15.70
2018-09-22T11:11:00.098Z,15.70
2018-09-22T11:16:03.361Z,16.20
2018-09-22T11:21:06.631Z,16.30
2018-09-22T11:26:09.903Z,16.20
2018-09-22T11:31:13.164Z,16.20
2018-09-22T11:36:16.412Z,16.80
2018-09-22T11:41:19.659Z,18.30
2018-09-22T11:46:23.015Z,19.30
2018-09-22T11:51:26.239Z,19.00
2018-09-22T11:56:29.530Z,19.30
2018-09-22T12:01:32.790Z,18.70
2018-09-22T12:06:36.136Z,17.60
2018-09-22T12:11:39.771Z,17.30
2018-09-22T12:21:46.000Z,17.40
2018-09-22T12:26:49.263Z,17.50
2018-09-22T12:36:55.575Z,17.70
2018-09-22T12:41:58.949Z,17.80
2018-09-22T12:47:02.196Z,17.60
2018-09-22T12:52:05.528Z,18.20
2018-09-22T12:57:08.811Z,18.20
2018-09-22T13:02:12.115Z,17.90
2018-09-22T13:07:15.380Z,18.30
2018-09-22T13:12:18.674Z,19.30
2018-09-22T13:17:21.928Z,19.30
2018-09-22T13:22:25.201Z,20.70
2018-09-22T13:27:28.447Z,20.30
2018-09-22T13:32:31.727Z,17.70
2018-09-22T13:37:35.000Z,17.70
2018-09-22T13:42:38.266Z,17.70
2018-09-22T13:47:41.529Z,18.20
2018-09-22T13:52:44.795Z,18.50
2018-09-22T13:57:48.057Z,18.60
2018-09-22T14:02:51.334Z,19.50
2018-09-22T14:12:57.587Z,18.70
2018-09-22T14:18:00.846Z,18.70
2018-09-22T14:23:04.107Z,18.40
2018-09-22T14:28:07.380Z,18.20
2018-09-22T14:33:10.627Z,18.20
2018-09-22T14:38:13.890Z,19.40
2018-09-22T14:43:17.127Z,19.30
2018-09-22T14:48:20.403Z,19.30
2018-09-22T14:53:23.787Z,19.00
2018-09-22T14:58:27.661Z,19.60
2018-09-22T15:03:30.958Z,21.40
2018-09-22T15:08:34.227Z,21.10
2018-09-22T15:13:37.487Z,20.50
2018-09-22T15:18:41.065Z,19.90
2018-09-22T15:23:44.858Z,19.90
2018-09-22T15:28:49.122Z,19.70
2018-09-22T15:33:53.046Z,20.40
2018-09-22T15:38:56.580Z,18.90
2018-09-22T15:43:59.882Z,18.70
2018-09-22T15:49:03.154Z,18.10
2018-09-22T15:54:06.222Z,18.10
2018-09-22T15:59:09.491Z,18.30
2018-09-22T16:04:12.743Z,17.80
2018-09-22T16:09:16.011Z,17.30
2018-09-22T16:14:19.563Z,17.20
2018-09-22T16:19:22.833Z,17.00
2018-09-22T16:24:26.084Z,16.90
2018-09-22T16:29:29.322Z,16.90
2018-09-22T16:34:32.570Z,16.90
2018-09-22T16:39:35.875Z,16.80
2018-09-22T16:44:41.518Z,16.70
2018-09-22T16:49:44.932Z,16.60
2018-09-22T16:54:48.167Z,16.60
2018-09-22T16:59:51.437Z,16.60
2018-09-22T17:04:54.858Z,16.60
2018-09-22T17:10:00.172Z,16.50
2018-09-22T17:15:03.423Z,16.20
2018-09-22T17:20:07.540Z,16.20
2018-09-22T17:25:10.791Z,16.00
2018-09-22T17:30:14.048Z,16.00
2018-09-22T17:35:17.294Z,16.00
2018-09-22T17:40:20.559Z,15.90
2018-09-22T17:45:23.823Z,15.70
2018-09-22T17:50:27.096Z,15.60
2018-09-22T17:55:30.318Z,15.50
2018-09-22T18:00:33.547Z,15.50
2018-09-22T18:05:37.212Z,15.50
2018-09-22T18:10:40.484Z,15.50
2018-09-22T18:15:43.752Z,15.40
2018-09-22T18:20:47.012Z,15.30
2018-09-22T18:25:50.300Z,15.30
2018-09-22T18:30:53.609Z,15.30
2018-09-22T18:35:56.869Z,15.30
2018-09-22T18:41:00.137Z,15.20
2018-09-22T18:46:04.047Z,15.30
2018-09-22T18:51:08.024Z,15.20
2018-09-22T18:56:11.363Z,15.10
2018-09-22T19:01:14.668Z,15.10
2018-09-22T19:06:17.927Z,15.10
2018-09-22T19:16:28.502Z,15.00
2018-09-22T19:26:45.452Z,15.00
2018-09-22T19:31:53.178Z,15.10
2018-09-22T19:42:07.603Z,14.90
2018-09-22T19:52:31.219Z,14.60
2018-09-22T19:57:34.534Z,14.40
2018-09-22T20:02:38.969Z,14.30
2018-09-22T20:17:48.546Z,14.10
2018-09-22T20:22:51.882Z,14.20
2018-09-22T20:27:55.861Z,14.10
2018-09-22T20:43:05.609Z,14.00
2018-09-22T21:03:17.927Z,13.90
2018-09-22T21:13:24.239Z,13.80
2018-09-22T21:18:27.562Z,14.00
2018-09-22T21:23:30.811Z,13.90
2018-09-22T21:28:34.282Z,13.90
2018-09-22T21:33:37.559Z,14.00
2018-09-22T21:43:44.215Z,14.00
2018-09-22T21:48:47.479Z,13.90
2018-09-22T21:53:50.755Z,13.90
2018-09-22T21:58:54.011Z,13.70
2018-09-22T22:03:57.263Z,13.80
2018-09-22T22:24:10.509Z,13.60
2018-09-22T22:39:20.411Z,13.50
2018-09-22T22:44:23.703Z,13.40
2018-09-22T22:54:30.812Z,13.20
2018-09-22T22:59:34.062Z,13.10
2018-09-22T23:19:47.767Z,13.00
2018-09-22T23:24:51.053Z,12.90
2018-09-22T23:29:54.630Z,12.90
2018-09-22T23:45:03.918Z,13.10
2018-09-22T23:50:07.238Z,13.10
2018-09-22T23:55:10.868Z,13.20
